Spade, Texas
Current Conditions -  °F | °C
As of 9:53 PM on Saturday 20 Dec 2014 (Local Time) from KLBB Reporting Station
Haze Haze  
Wind Chill: 33°   Ceiling: Unl
Heat Index: 39°   Visibility: 5mi
Dew Point: 38°   Wind: 9mph
Humidity: 96%   Direction: 160°SSE
Pressure: 30.03"   Gusts: NA
Location:  33.93°N, 102.15°W
Report Text: KLBB 210353Z 16008KT 5SM BR CLR 04/03 A3003 RMK AO2 SLP168 T00390033
Loading
Personal Weather Stations






























Interactive Weather Map New forecast layout! Learn more

10-Day Weather Forecast

Advertisements
Track Severe Weather on mobile